Flight Track Log - Related Links

Times and Time Zones

All times are in EST time to prevent confusion due to time zone crossing. See the N700QA flight status page for this flight to view local times or setup timezone preferences in your user account.

Time Position Orientation Groundspeed Altitude Reporting Facility
EST Latitude Longitude Course Direction KTS MPH feet Rate Location/Type
Tue 11:23:04 AM 33.9167 -118.4667 212° Southwest 216 249 2,100  Level Southern California TRACON
Tue 11:24:21 AM 33.8617 -118.5083 212° Southwest 260 299 4,700 2,271 Climbing Los Angeles Center
Tue 11:25:24 AM 33.7661 -118.5167 184° South 289 333 7,400 2,256 Climbing Los Angeles Center
Tue 11:26:26 AM 33.6972 -118.4767 154° Southeast 299 344 9,400 1,935 Climbing Los Angeles Center
Tue 11:27:28 AM 33.6692 -118.3842 110° East 300 345 11,400 1,597 Climbing Los Angeles Center
Tue 11:28:30 AM 33.6436 -118.2892 108° East 305 351 12,700 1,210 Climbing Los Angeles Center
Tue 11:29:32 AM 33.6342 -118.1561 95° East 340 391 13,900 1,113 Climbing Los Angeles Center
Tue 11:30:34 AM 33.6361 -118.0400 89° East 348 400 15,000 532 Climbing Los Angeles Center
Tue 11:31:36 AM 33.6372 -117.9233 89° East 352 405 15,000 48 Level Los Angeles Center
Tue 11:32:38 AM 33.6367 -117.8111 90° East 342 394 15,100 532 Climbing Los Angeles Center
Tue 11:33:40 AM 33.6381 -117.7000 89° East 335 386 16,100 919 Climbing Los Angeles Center
Tue 11:34:42 AM 33.6369 -117.5650 91° East 339 390 17,000 634 Climbing Los Angeles Center
Tue 11:35:43 AM 33.6367 -117.4717 90° East 347 399 17,400 677 Climbing Los Angeles Center
Tue 11:36:46 AM 33.6375 -117.3264 90° East 362 417 18,400 1,008 Climbing Los Angeles Center
Tue 11:37:48 AM 33.6361 -117.2039 91° East 369 425 19,500 1,210 Climbing Los Angeles Center
Tue 11:38:50 AM 33.6372 -117.0806 89° East 370 426 20,900 1,244 Climbing Los Angeles Center
Tue 11:40:03 AM 33.6356 -116.9567 91° East 372 428 22,300 1,368 Climbing Los Angeles Center
Tue 11:41:06 AM 33.6350 -116.7908 90° East 370 426 24,000 1,440 Climbing Los Angeles Center
Tue 11:42:08 AM 33.6342 -116.6647 90° East 376 433 25,300 1,306 Climbing Los Angeles Center
Tue 11:43:10 AM 33.6322 -116.5394 91° East 375 432 26,700 1,113 Climbing Los Angeles Center
Tue 11:44:12 AM 33.6322 -116.4164 90° East 369 425 27,600 629 Climbing Los Angeles Center
Tue 11:45:14 AM 33.6306 -116.2606 91° East 384 442 28,000 242 Climbing Los Angeles Center
Tue 11:46:16 AM 33.6292 -116.1219 91° East 408 470 28,100  Climbing Los Angeles Center
Tue 11:47:18 AM 33.6247 -115.9875 92° East 405 466 28,000 -48 Descending Los Angeles Center
Tue 11:48:20 AM 33.6225 -115.8544 91° East 398 458 28,000 484 Level Los Angeles Center
Tue 11:49:22 AM 33.6197 -115.7178 91° East 406 467 29,000 968 Climbing Los Angeles Center
Tue 11:50:24 AM 33.6153 -115.5825 92° East 406 467 30,000 912 Climbing Los Angeles Center
Tue 11:51:27 AM 33.6133 -115.4489 91° East 402 463 30,900 1,056 Climbing Los Angeles Center
Tue 11:52:29 AM 33.6092 -115.2903 92° East 397 457 32,200 1,065 Climbing Los Angeles Center
Tue 11:53:31 AM 33.6006 -115.1567 94° East 402 463 33,100 726 Climbing Los Angeles Center
Tue 11:54:33 AM 33.5781 -115.0300 102° East 392 451 33,700 484 Climbing Los Angeles Center
Tue 11:55:35 AM 33.5558 -114.8961 101° East 411 473 34,100 484 Climbing Los Angeles Center
Tue 11:56:37 AM 33.5344 -114.7681 101° East 396 456 34,700 439 Climbing Los Angeles Center
Tue 11:57:38 AM 33.5125 -114.6375 101° East 400 460 35,000 195 Climbing Los Angeles Center
Tue 11:58:40 AM 33.4881 -114.4811 101° East 404 465 35,100  Climbing Los Angeles Center
Tue 11:59:42 AM 33.4636 -114.3481 102° East 406 467 35,000  Descending Los Angeles Center
Tue 12:00:56 PM 33.4408 -114.2117 101° East 414 476 35,100 44 Climbing Los Angeles Center
Tue 12:01:59 PM 33.4136 -114.0450 101° East 423 487 35,100  Level Los Angeles Center
Tue 12:03:17 PM 33.3858 -113.8669 101° East 426 490 35,100 -44 Level Albuquerque Center
Tue 12:04:15 PM 33.3600 -113.7375 103° East 429 494 35,000 -50 Descending Los Angeles Center
Tue 12:05:17 PM 33.3303 -113.5683 102° East 432 497 35,000  Level Los Angeles Center
Tue 12:06:19 PM 33.3069 -113.4275 101° East 433 498 35,000 47 Level Los Angeles Center
Tue 12:07:24 PM 33.2803 -113.2706 101° East 438 504 35,100 47 Climbing Albuquerque Center
Tue 12:08:26 PM 33.2550 -113.1275 102° East 438 504 35,100  Level Albuquerque Center
Tue 12:09:28 PM 33.2289 -112.9847 102° East 438 504 35,100 -48 Level Albuquerque Center
Tue 12:10:30 PM 33.2031 -112.8403 102° East 442 509 35,000 -48 Descending Albuquerque Center
Tue 12:11:32 PM 33.1761 -112.6997 103° East 438 504 35,000  Level Albuquerque Center
Tue 12:12:34 PM 33.1511 -112.5556 102° East 439 505 35,000  Level Albuquerque Center
Tue 12:13:36 PM 33.1181 -112.3839 103° East 440 506 35,000  Level Albuquerque Center
Tue 12:14:37 PM 33.0933 -112.2447 102° East 438 504 35,000  Level Albuquerque Center
Tue 12:15:39 PM 33.0667 -112.1000 102° East 440 506 35,000  Level Albuquerque Center
Tue 12:16:41 PM 33.0414 -111.9619 102° East 438 504 35,000 48 Level Albuquerque Center
Tue 12:17:43 PM 33.0147 -111.8208 103° East 439 505 35,100  Climbing Albuquerque Center
Tue 12:18:45 PM 32.9869 -111.6806 103° East 438 504 35,000  Descending Albuquerque Center
Tue 12:19:47 PM 32.9550 -111.5108 103° East 440 506 35,100  Climbing Albuquerque Center
Tue 12:20:49 PM 32.9281 -111.3708 103° East 438 504 35,000  Descending Albuquerque Center
Tue 12:21:51 PM 32.9008 -111.2275 103° East 443 510 35,100  Climbing Albuquerque Center
Tue 12:22:52 PM 32.8728 -111.0867 103° East 442 509 35,000  Descending Albuquerque Center
Tue 12:23:54 PM 32.8444 -110.9453 103° East 442 509 35,100  Climbing Albuquerque Center
Tue 12:24:56 PM 32.8111 -110.7744 103° East 443 510 35,000  Descending Albuquerque Center
Tue 12:25:58 PM 32.7811 -110.6283 104° East 442 509 35,100 48 Climbing Albuquerque Center
Tue 12:27:00 PM 32.7522 -110.4872 104° East 442 509 35,100 -48 Level Albuquerque Center
Tue 12:28:02 PM 32.7236 -110.3453 103° East 442 509 35,000  Descending Albuquerque Center
Tue 12:29:04 PM 32.6950 -110.2042 104° East 442 509 35,100  Climbing Albuquerque Center
Tue 12:30:06 PM 32.6653 -110.0633 104° East 441 507 35,000 -49 Descending Albuquerque Center
Tue 12:31:07 PM 32.6358 -109.9225 104° East 441 507 35,000  Level Albuquerque Center
Tue 12:32:09 PM 32.5997 -109.7553 104° East 439 505 35,000  Level Albuquerque Center
Tue 12:33:11 PM 32.5681 -109.6117 105° East 450 518 35,000  Level Albuquerque Center
Tue 12:34:13 PM 32.5375 -109.4722 105° East 446 513 35,000  Level Albuquerque Center
Tue 12:35:15 PM 32.5103 -109.3325 103° East 440 506 35,000  Level Albuquerque Center
Tue 12:36:17 PM 32.4800 -109.1928 104° East 442 509 35,000  Level Albuquerque Center
Tue 12:37:19 PM 32.4492 -109.0536 105° East 442 509 35,000 48 Level Albuquerque Center
Tue 12:38:21 PM 32.4133 -108.8858 104° East 441 507 35,100  Climbing Albuquerque Center
Tue 12:39:23 PM 32.3819 -108.7458 105° East 443 510 35,000 -48 Descending Albuquerque Center
Tue 12:40:25 PM 32.3511 -108.6053 105° East 443 510 35,000 49 Level Albuquerque Center
Tue 12:41:26 PM 32.3206 -108.4631 104° East 446 513 35,100  Climbing Albuquerque Center
Tue 12:42:28 PM 32.2889 -108.3206 105° East 445 512 35,000 -48 Descending Albuquerque Center
Tue 12:43:30 PM 32.2583 -108.1803 104° East 444 511 35,000 48 Level Albuquerque Center
Tue 12:44:32 PM 32.2203 -108.0114 105° East 445 512 35,100  Climbing Albuquerque Center
Tue 12:45:34 PM 32.1894 -107.8706 104° East 446 513 35,000 -48 Descending Albuquerque Center
Tue 12:46:36 PM 32.1558 -107.7283 106° East 448 516 35,000  Level Albuquerque Center
Tue 12:47:38 PM 32.1239 -107.5883 105° East 449 517 35,000  Level Albuquerque Center
Tue 12:48:40 PM 32.0922 -107.4483 105° East 447 514 35,000  Level Albuquerque Center
Tue 12:49:42 PM 32.0550 -107.2814 105° East 446 513 35,000  Level Albuquerque Center
Tue 12:50:44 PM 32.0225 -107.1408 105° East 447 514 35,000  Level Albuquerque Center
Tue 12:51:45 PM 31.9894 -107.0019 106° East 446 513 35,000  Level Albuquerque Center
Tue 12:52:47 PM 31.9575 -106.8619 105° East 447 514 35,000  Level Albuquerque Center
Tue 12:53:49 PM 31.9233 -106.7208 106° East 451 519 35,000  Level Albuquerque Center
Tue 12:54:51 PM 31.8828 -106.5522 106° East 449 517 35,000  Level Albuquerque Center
Tue 12:55:53 PM 31.8500 -106.4089 105° East 453 521 35,000  Level Albuquerque Center
Tue 12:56:55 PM 31.8164 -106.2644 105° East 458 527 35,000 48 Level Albuquerque Center
Tue 12:57:57 PM 31.7725 -106.1047 108° East 454 522 35,100  Climbing Albuquerque Center
Tue 12:58:59 PM 31.7367 -105.9625 106° East 454 522 35,000  Descending Albuquerque Center
Tue 01:00:01 PM 31.7011 -105.8203 106° East 454 522 35,100  Climbing Albuquerque Center
Tue 01:01:03 PM 31.6625 -105.6672 106° East 453 521 35,000 -48 Descending Albuquerque Center
Tue 01:02:05 PM 31.6264 -105.5258 107° East 453 521 35,000 48 Level Albuquerque Center
Tue 01:03:07 PM 31.5906 -105.3844 107° East 453 521 35,100 48 Climbing Albuquerque Center
Tue 01:04:09 PM 31.5553 -105.2483 107° East 456 525 35,100 -48 Level Albuquerque Center
Tue 01:05:11 PM 31.5175 -105.1064 107° East 456 525 35,000  Descending Albuquerque Center
Tue 01:06:13 PM 31.4792 -104.9364 105° East 454 522 35,100  Climbing Albuquerque Center
Tue 01:07:15 PM 31.4419 -104.7953 107° East 453 521 35,000  Descending Albuquerque Center
Tue 01:08:17 PM 31.4050 -104.6536 107° East 456 525 35,100  Climbing Albuquerque Center
Tue 01:09:19 PM 31.3675 -104.5131 107° East 456 525 35,000  Descending Albuquerque Center
Tue 01:10:21 PM 31.3306 -104.3711 107° East 457 526 35,100 49 Climbing Albuquerque Center
Tue 01:11:22 PM 31.2931 -104.2281 107° East 460 529 35,100  Level Albuquerque Center
Tue 01:12:24 PM 31.2478 -104.0558 107° East 463 533 35,100  Level Albuquerque Center
Tue 01:13:26 PM 31.2092 -103.9150 108° East 460 529 35,100  Level Albuquerque Center
Tue 01:14:28 PM 31.1717 -103.7744 107° East 455 524 35,100  Level Albuquerque Center
Tue 01:15:30 PM 31.1328 -103.6336 108° East 457 526 35,100  Level Albuquerque Center
Tue 01:16:32 PM 31.0964 -103.4939 107° East 454 522 35,100  Level Albuquerque Center
Tue 01:17:34 PM 31.0572 -103.3539 108° East 455 524 35,100  Level Albuquerque Center
Tue 01:18:36 PM 31.0111 -103.1850 108° East 457 526 35,100  Level Albuquerque Center
Tue 01:19:37 PM 30.9722 -103.0439 108° East 458 527 35,100  Level Albuquerque Center
Tue 01:20:39 PM 30.9336 -102.9044 108° East 457 526 35,100  Level Albuquerque Center
Tue 01:21:41 PM 30.8992 -102.7631 106° East 457 526 35,100  Level Albuquerque Center
Tue 01:22:43 PM 30.8619 -102.6231 107° East 457 526 35,100  Level Albuquerque Center
Tue 01:23:45 PM 30.8247 -102.4836 107° East 456 525 35,100  Level Albuquerque Center
Tue 01:24:47 PM 30.7831 -102.3161 106° East 455 524 35,100  Level Albuquerque Center
Tue 01:25:49 PM 30.7453 -102.1769 107° East 455 524 35,100  Level Albuquerque Center
Tue 01:26:51 PM 30.7083 -102.0386 107° East 453 521 35,100  Level Albuquerque Center
Tue 01:27:53 PM 30.6711 -101.8997 107° East 453 521 35,100  Level Albuquerque Center
Tue 01:29:16 PM 30.6211 -101.7075 107° East 449 517 35,100  Level Houston Center
Tue 01:30:18 PM 30.5842 -101.5700 107° East 450 518 35,100  Level Houston Center
Tue 01:31:20 PM 30.5381 -101.4067 108° East 448 516 35,100  Level Houston Center
Tue 01:32:22 PM 30.5011 -101.2694 107° East 446 513 35,100  Level Houston Center
Tue 01:33:24 PM 30.4647 -101.1328 107° East 445 512 35,100  Level Houston Center
Tue 01:34:26 PM 30.4281 -100.9956 107° East 447 514 35,100 -48 Level Houston Center
Tue 01:35:28 PM 30.3892 -100.8611 109° East 443 510 35,000 -677 Descending Houston Center
Tue 01:36:30 PM 30.3511 -100.7211 107° East 445 512 33,700 -1,415 Descending Houston Center
Tue 01:37:31 PM 30.3144 -100.5872 108° East 445 512 32,100 -1,707 Descending Houston Center
Tue 01:38:33 PM 30.2694 -100.4231 108° East 443 510 30,200 -1,597 Descending Houston Center
Tue 01:39:35 PM 30.2308 -100.2836 108° East 447 514 28,800 -1,306 Descending Houston Center
Tue 01:40:37 PM 30.1911 -100.1461 108° East 443 510 27,500 -1,790 Descending Houston Center
Tue 01:41:39 PM 30.1525 -100.0067 108° East 447 514 25,100 -2,274 Descending Houston Center
Tue 01:42:41 PM 30.1142 -99.8708 108° East 444 511 22,800 -2,177 Descending Houston Center
Tue 01:43:43 PM 30.0767 -99.7467 109° East 414 476 20,600 -2,129 Descending Houston Center
Tue 01:44:45 PM 30.0433 -99.6264 108° East 396 456 18,400 -2,032 Descending Houston Center
Tue 01:45:47 PM 30.0092 -99.5083 108° East 389 448 16,400 -2,081 Descending Houston Center
Tue 01:46:49 PM 29.9694 -99.3661 108° East 388 447 14,100 -2,151 Descending Houston Center
Tue 01:47:33 PM 29.9439 -99.2856 110° East 380 437 12,600 -1,935 Descending Houston Center
Tue 01:47:51 PM 29.9361 -99.2556 107° East 367 422 12,100 -1,967 Descending Houston Center
Tue 01:48:34 PM 29.9136 -99.1758 108° East 358 412 10,600 -1,645 Descending Houston Center
Tue 01:48:53 PM 29.9039 -99.1497 113° Southeast 349 402 10,400 -1,180 Descending Houston Center
Tue 01:49:35 PM 29.8739 -99.0817 117° Southeast 290 334 9,400 -1,258 Descending Houston Center
Tue 01:49:55 PM 29.8633 -99.0550 115° Southeast 291 335 9,100 -1,279 Descending Houston Center
Tue 01:50:36 PM 29.8378 -99.0039 120° Southeast 260 299 8,100 -1,258 Descending Houston Center
Tue 01:50:57 PM 29.8281 -98.9811 116° Southeast 266 306 7,800 -1,475 Descending Houston Center
Tue 01:51:37 PM 29.8039 -98.9283 118° Southeast 265 305 6,600 -1,742 Descending Houston Center
Tue 01:51:59 PM 29.7906 -98.8986 117° Southeast 269 310 6,000 -1,343 Descending Houston Center
Tue 01:52:44 PM 29.7656 -98.8508 121° Southeast 262 302 5,100 -1,065 Descending Houston Center
Tue 01:53:01 PM 29.7575 -98.8281 112° Southeast 252 290 4,900 -873 Descending Houston Center
Tue 01:53:39 PM 29.7375 -98.7942 124° Southeast 213 245 4,300 -677 Descending Houston Center
Tue 01:54:03 PM 29.7278 -98.7681 113° Southeast 222 255 4,200 -295 Descending Houston Center
Tue 01:54:40 PM 29.7108 -98.7322 119° Southeast 216 249 4,000 -97 Descending Houston Center
Tue 01:55:05 PM 29.6967 -98.7014 118° Southeast 219 252 4,100  Climbing Houston Center
Tue 01:55:46 PM 29.6753 -98.6619 122° Southeast 219 252 4,000 -97 Descending Houston Center
Tue 01:56:07 PM 29.6658 -98.6411 118° Southeast 218 251 4,000 -295 Level Houston Center
Tue 01:56:47 PM 29.6392 -98.6108 135° Southeast 195 224 3,700 -581 Descending Houston Center
Tue 01:57:09 PM 29.6247 -98.5911 130° Southeast 202 232 3,400 -1,180 Descending Houston Center
Tue 01:57:48 PM 29.6011 -98.5625 134° Southeast 208 239 2,500 -1,258 Descending Houston Center
Tue 01:58:11 PM 29.5869 -98.5414 128° Southeast 204 235 2,100 -982 Descending Houston Center
Tue 01:58:43 PM 29.5700 -98.5206 133° Southeast 185 213 1,600 -787 Descending Houston Center
Tue 01:59:12 PM 29.5561 -98.5000 128° Southeast 154 177 1,300 -462 Descending Houston Center
Tue 02:00:14 PM 29.5378 -98.4753 130° Southeast 111 128 900 -387 Descending Houston Center
Tue 02:02:00 PM 29.5333 -98.4667 120° Southeast  Level FlightAware Approximate
Tue 02:09:00 PM 29.5340 -98.4691 120° Southeast  Level Estimated
Tue 02:10:00 PM 29.5333 -98.4667 120° Southeast  Level FlightAware Approximate

Login

Don't have an account? Register now (free) for customized features, flight alerts, and more!